createdAt,value
2023-05-21T00:01:16.319Z,82.60
2023-05-21T00:03:46.364Z,82.17
2023-05-21T00:06:15.536Z,82.90
2023-05-21T00:08:43.749Z,82.89
2023-05-21T00:11:12.384Z,83.22
2023-05-21T00:13:40.684Z,85.32
2023-05-21T00:16:11.178Z,84.50
2023-05-21T00:18:39.972Z,84.86
2023-05-21T00:21:08.206Z,86.31
2023-05-21T00:23:37.724Z,87.23
2023-05-21T00:26:06.663Z,88.49
2023-05-21T00:28:35.034Z,88.83
2023-05-21T00:31:03.060Z,87.97
2023-05-21T00:33:31.587Z,87.34
2023-05-21T00:36:00.423Z,87.45
2023-05-21T00:38:28.583Z,88.38
2023-05-21T00:40:57.239Z,88.09
2023-05-21T00:43:26.630Z,88.30
2023-05-21T00:45:56.553Z,89.09
2023-05-21T00:48:26.285Z,89.55
2023-05-21T00:50:54.966Z,89.69
2023-05-21T00:53:23.533Z,91.28
2023-05-21T00:55:52.187Z,91.86
2023-05-21T00:58:20.490Z,91.27
2023-05-21T01:00:48.720Z,88.92
2023-05-21T01:03:17.649Z,88.92
2023-05-21T01:05:47.146Z,90.43
2023-05-21T01:08:15.493Z,90.00
2023-05-21T01:10:44.690Z,91.25
2023-05-21T01:13:13.069Z,91.72
2023-05-21T01:15:41.263Z,91.90
2023-05-21T01:18:09.988Z,92.73
2023-05-21T01:20:39.318Z,91.47
2023-05-21T01:23:07.478Z,92.92
2023-05-21T01:25:36.205Z,90.41
2023-05-21T01:28:04.591Z,89.91
2023-05-21T01:30:32.753Z,91.59
2023-05-21T01:33:13.227Z,93.37
2023-05-21T01:35:49.705Z,92.92
2023-05-21T01:38:24.913Z,92.14
2023-05-21T01:41:23.154Z,93.01
2023-05-21T01:43:55.790Z,93.61
2023-05-21T01:46:27.650Z,92.43
2023-05-21T01:48:57.148Z,94.77
2023-05-21T01:51:26.169Z,95.99
2023-05-21T01:53:54.328Z,95.33
2023-05-21T01:56:26.164Z,96.17
2023-05-21T01:58:57.043Z,94.76
2023-05-21T02:01:27.104Z,93.96
2023-05-21T02:03:56.736Z,93.49
2023-05-21T02:06:25.208Z,94.26
2023-05-21T02:08:53.427Z,95.41
2023-05-21T02:11:22.450Z,95.92
2023-05-21T02:13:51.384Z,96.21
2023-05-21T02:16:22.632Z,95.48
2023-05-21T02:18:52.231Z,94.79
2023-05-21T02:21:20.884Z,93.79
2023-05-21T02:23:49.536Z,94.78
2023-05-21T02:26:17.950Z,96.34
2023-05-21T02:28:46.516Z,97.17
2023-05-21T02:31:14.902Z,96.12
2023-05-21T02:33:43.464Z,94.14
2023-05-21T02:36:15.737Z,95.21
2023-05-21T02:38:44.388Z,96.22
2023-05-21T02:41:12.816Z,97.34
2023-05-21T02:43:41.151Z,97.17
2023-05-21T02:46:09.317Z,95.87
2023-05-21T02:48:37.890Z,95.88
2023-05-21T02:51:06.665Z,97.32
2023-05-21T02:53:34.813Z,95.68
2023-05-21T02:56:03.811Z,97.12
2023-05-21T02:58:32.235Z,94.81
2023-05-21T03:01:00.665Z,96.77
2023-05-21T03:03:29.424Z,96.99
2023-05-21T03:05:58.890Z,97.01
2023-05-21T03:08:26.912Z,97.00
2023-05-21T03:10:55.872Z,96.69
2023-05-21T03:13:24.343Z,96.75
2023-05-21T03:15:56.260Z,97.44
2023-05-21T03:18:24.742Z,98.08
2023-05-21T03:20:53.917Z,99.99
2023-05-21T03:23:22.010Z,100.00
2023-05-21T03:25:53.574Z,94.83
2023-05-21T03:28:22.472Z,97.21
2023-05-21T03:30:52.084Z,99.58
2023-05-21T03:33:23.920Z,99.11
2023-05-21T03:35:52.643Z,100.00
2023-05-21T03:38:20.800Z,100.00
2023-05-21T03:40:49.345Z,100.00
2023-05-21T03:43:18.396Z,100.00
2023-05-21T03:45:46.841Z,100.00
2023-05-21T03:48:19.138Z,100.00
2023-05-21T03:50:47.894Z,96.75
2023-05-21T03:53:15.996Z,99.87
2023-05-21T03:55:44.401Z,99.80
2023-05-21T03:58:12.926Z,100.00
2023-05-21T04:00:41.238Z,100.00
2023-05-21T04:03:11.931Z,100.00
2023-05-21T04:05:40.183Z,98.39
2023-05-21T04:08:08.496Z,99.18
2023-05-21T04:10:37.868Z,94.75
2023-05-21T04:13:06.491Z,98.00
2023-05-21T04:15:36.130Z,95.21
2023-05-21T04:18:07.352Z,98.95
2023-05-21T04:20:35.776Z,98.30
2023-05-21T04:23:03.969Z,100.00
2023-05-21T04:25:32.861Z,100.00
2023-05-21T04:28:01.199Z,100.00
2023-05-21T04:30:29.464Z,100.00
2023-05-21T04:32:58.212Z,100.00
2023-05-21T04:35:27.266Z,100.00
2023-05-21T04:37:56.108Z,98.85
2023-05-21T04:40:27.183Z,92.44
2023-05-21T04:42:56.311Z,94.80
2023-05-21T04:45:27.273Z,95.35
2023-05-21T04:48:00.424Z,91.61
2023-05-21T04:50:32.387Z,90.08
2023-05-21T04:53:00.632Z,92.57
2023-05-21T04:55:29.261Z,92.17
2023-05-21T04:57:58.055Z,95.05
2023-05-21T05:00:26.901Z,95.14
2023-05-21T05:02:56.248Z,93.54
2023-05-21T05:05:25.070Z,93.33
2023-05-21T05:07:53.398Z,92.76
2023-05-21T05:10:21.915Z,92.47
2023-05-21T05:12:50.522Z,90.49
2023-05-21T05:15:18.746Z,88.59
2023-05-21T05:17:50.642Z,86.43
2023-05-21T05:20:19.329Z,87.15
2023-05-21T05:22:47.798Z,85.83
2023-05-21T05:25:16.094Z,83.50
2023-05-21T05:27:44.508Z,84.20
2023-05-21T05:30:14.157Z,84.16
2023-05-21T05:32:42.458Z,83.93
2023-05-21T05:35:10.961Z,84.39
2023-05-21T05:37:39.587Z,83.83
2023-05-21T05:40:08.158Z,85.82
2023-05-21T05:42:36.756Z,84.52
2023-05-21T05:45:06.156Z,80.90
2023-05-21T05:47:35.326Z,81.97
2023-05-21T05:50:03.769Z,85.18
2023-05-21T05:52:32.221Z,81.67
2023-05-21T05:55:00.427Z,83.54
2023-05-21T05:57:28.906Z,83.30
2023-05-21T05:59:58.449Z,80.70
2023-05-21T06:02:27.399Z,81.77
2023-05-21T06:04:56.399Z,81.32
2023-05-21T06:07:24.666Z,80.87
2023-05-21T06:09:52.816Z,77.38
2023-05-21T06:12:21.557Z,78.98
2023-05-21T06:14:50.984Z,80.38
2023-05-21T06:17:19.333Z,80.80
2023-05-21T06:19:48.104Z,79.74
2023-05-21T06:22:16.441Z,76.40
2023-05-21T06:24:44.801Z,75.85
2023-05-21T06:27:13.789Z,77.00
2023-05-21T06:29:42.152Z,79.37
2023-05-21T06:32:10.312Z,75.66
2023-05-21T06:34:38.876Z,73.93
2023-05-21T06:37:06.964Z,78.07
2023-05-21T06:39:35.171Z,76.02
2023-05-21T06:42:04.848Z,75.42
2023-05-21T06:44:39.286Z,73.00
2023-05-21T06:47:09.256Z,74.73
2023-05-21T06:49:37.339Z,74.66
2023-05-21T06:52:05.765Z,73.55
2023-05-21T06:54:35.055Z,75.01
2023-05-21T06:57:03.533Z,72.54
2023-05-21T06:59:32.626Z,72.97
2023-05-21T07:02:04.312Z,72.70
2023-05-21T07:04:35.317Z,68.91
2023-05-21T07:07:04.898Z,65.35
2023-05-21T07:09:33.284Z,63.12
2023-05-21T07:12:02.205Z,62.23
2023-05-21T07:14:31.017Z,65.70
2023-05-21T07:16:59.211Z,63.03
2023-05-21T07:19:27.430Z,59.72
2023-05-21T07:21:57.202Z,61.06
2023-05-21T07:24:27.578Z,60.44
2023-05-21T07:26:56.150Z,58.21
2023-05-21T07:29:24.985Z,58.25
2023-05-21T07:31:53.405Z,59.94
2023-05-21T07:34:21.870Z,57.73
2023-05-21T07:36:50.172Z,57.96
2023-05-21T07:39:18.561Z,57.21
2023-05-21T07:41:47.046Z,56.82
2023-05-21T07:44:16.816Z,54.27
2023-05-21T07:46:46.681Z,56.85
2023-05-21T07:49:16.969Z,52.19
2023-05-21T07:51:46.280Z,54.08
2023-05-21T07:54:14.871Z,52.94
2023-05-21T07:56:43.608Z,55.62
2023-05-21T07:59:17.534Z,54.29
2023-05-21T08:01:46.367Z,51.64
2023-05-21T08:04:14.978Z,50.90
2023-05-21T08:06:43.401Z,50.17
2023-05-21T08:09:12.241Z,55.35
2023-05-21T08:11:42.160Z,47.87
2023-05-21T08:14:10.662Z,50.80
2023-05-21T08:16:39.083Z,49.73
2023-05-21T08:19:07.630Z,46.86
2023-05-21T08:21:35.867Z,48.13
2023-05-21T08:24:04.328Z,47.87
2023-05-21T08:26:33.133Z,48.48
2023-05-21T08:29:01.773Z,49.62
2023-05-21T08:31:30.186Z,49.03
2023-05-21T08:33:58.647Z,49.14
2023-05-21T08:36:27.579Z,48.67
2023-05-21T08:38:56.627Z,49.53
2023-05-21T08:41:26.465Z,48.58
2023-05-21T08:44:02.323Z,46.71
2023-05-21T08:46:36.843Z,47.40
2023-05-21T08:49:06.645Z,49.00
2023-05-21T08:51:36.048Z,48.21
2023-05-21T08:54:05.576Z,46.80
2023-05-21T08:56:34.945Z,50.23
2023-05-21T08:59:03.476Z,48.04
2023-05-21T09:01:33.446Z,46.18
2023-05-21T09:04:19.073Z,46.48
2023-05-21T09:06:48.607Z,49.47
2023-05-21T09:09:33.667Z,44.76
2023-05-21T09:12:02.412Z,44.93
2023-05-21T09:14:31.767Z,46.36
2023-05-21T09:17:00.567Z,45.81
2023-05-21T09:19:32.180Z,45.94
2023-05-21T09:22:04.726Z,41.67
2023-05-21T09:24:35.981Z,45.57
2023-05-21T09:27:07.884Z,44.34
2023-05-21T09:29:36.963Z,46.01
2023-05-21T09:32:10.034Z,46.36
2023-05-21T09:34:39.452Z,45.18
2023-05-21T09:37:16.413Z,45.87
2023-05-21T09:39:49.503Z,44.78
2023-05-21T09:42:21.610Z,41.23
2023-05-21T09:44:50.071Z,45.39
2023-05-21T09:47:21.021Z,47.07
2023-05-21T09:49:49.712Z,46.39
2023-05-21T09:52:25.919Z,43.78
2023-05-21T09:54:54.331Z,45.54
2023-05-21T09:57:26.661Z,45.93
2023-05-21T09:59:55.151Z,42.21
2023-05-21T10:02:24.751Z,44.41
2023-05-21T10:04:54.848Z,46.32
2023-05-21T10:07:26.547Z,45.20
2023-05-21T10:09:56.882Z,49.38
2023-05-21T10:12:25.510Z,50.16
2023-05-21T10:15:04.897Z,53.21
2023-05-21T10:17:34.545Z,46.63
2023-05-21T10:20:04.977Z,48.19
2023-05-21T10:22:34.596Z,49.89
2023-05-21T10:25:03.814Z,60.90
2023-05-21T10:27:33.474Z,54.55
2023-05-21T10:30:02.151Z,47.20
2023-05-21T10:32:31.543Z,53.26
2023-05-21T10:35:01.966Z,51.28
2023-05-21T10:37:30.825Z,53.27
2023-05-21T10:39:59.088Z,57.47
2023-05-21T10:42:47.931Z,57.65
2023-05-21T10:45:43.159Z,53.85
2023-05-21T10:48:26.345Z,52.67
2023-05-21T10:51:20.376Z,53.59
2023-05-21T10:54:25.708Z,50.38
2023-05-21T10:57:00.201Z,53.69
2023-05-21T10:59:42.574Z,52.12
2023-05-21T11:02:13.111Z,46.83
2023-05-21T11:04:45.066Z,49.00
2023-05-21T11:07:13.605Z,47.92
2023-05-21T11:09:41.778Z,50.16
2023-05-21T11:12:10.528Z,47.24
2023-05-21T11:14:56.322Z,50.26
2023-05-21T11:17:40.942Z,48.15
2023-05-21T11:20:13.758Z,46.05
2023-05-21T11:22:42.282Z,46.95
2023-05-21T11:25:12.597Z,48.86
2023-05-21T11:27:42.272Z,50.49
2023-05-21T11:30:16.165Z,48.76
2023-05-21T11:33:12.253Z,49.35
2023-05-21T11:35:59.513Z,50.69
2023-05-21T11:38:34.127Z,48.50
2023-05-21T11:41:05.610Z,50.29
2023-05-21T11:43:33.828Z,48.57
2023-05-21T11:46:02.527Z,47.84
2023-05-21T11:48:32.737Z,50.13
2023-05-21T11:51:01.638Z,49.52
2023-05-21T11:53:30.418Z,50.33
2023-05-21T11:56:02.142Z,50.23
2023-05-21T11:58:31.723Z,50.69
2023-05-21T12:01:00.068Z,50.02
2023-05-21T12:03:30.766Z,47.29
2023-05-21T12:06:06.475Z,47.30
2023-05-21T12:08:36.198Z,47.06
2023-05-21T12:11:04.889Z,48.65
2023-05-21T12:13:32.995Z,50.21
2023-05-21T12:16:05.207Z,48.26
2023-05-21T12:18:36.732Z,49.07
2023-05-21T12:21:05.586Z,48.75
2023-05-21T12:23:33.811Z,49.74
2023-05-21T12:26:03.272Z,48.65
2023-05-21T12:28:32.323Z,48.05
2023-05-21T12:31:00.618Z,50.65
2023-05-21T12:33:35.626Z,47.98
2023-05-21T12:36:04.528Z,46.87
2023-05-21T12:38:32.908Z,47.03
2023-05-21T12:41:06.000Z,49.76
2023-05-21T12:43:35.052Z,48.49
2023-05-21T12:46:03.451Z,50.54
2023-05-21T12:48:32.035Z,49.61
2023-05-21T12:51:00.410Z,50.44
2023-05-21T12:53:38.094Z,49.95
2023-05-21T12:56:13.724Z,51.11
2023-05-21T12:58:49.722Z,48.00
2023-05-21T13:01:21.486Z,44.42
2023-05-21T13:03:50.008Z,46.33
2023-05-21T13:06:18.530Z,46.09
2023-05-21T13:08:46.670Z,46.30
2023-05-21T13:11:14.668Z,46.57
2023-05-21T13:13:43.378Z,46.16
2023-05-21T13:16:11.515Z,45.68
2023-05-21T13:18:39.717Z,44.88
2023-05-21T13:21:08.389Z,44.30
2023-05-21T13:23:36.503Z,42.84
2023-05-21T13:26:04.850Z,44.67
2023-05-21T13:28:33.412Z,42.56
2023-05-21T13:31:01.636Z,43.79
2023-05-21T13:33:31.787Z,47.72
2023-05-21T13:36:00.607Z,45.49
2023-05-21T13:38:28.729Z,44.10
2023-05-21T13:40:57.072Z,46.26
2023-05-21T13:43:25.626Z,44.66
2023-05-21T13:45:53.955Z,43.48
2023-05-21T13:48:22.286Z,45.14
2023-05-21T13:50:50.816Z,46.25
2023-05-21T13:53:18.915Z,46.53
2023-05-21T13:55:47.229Z,44.23
2023-05-21T13:58:15.895Z,46.47
2023-05-21T14:00:44.149Z,46.47
2023-05-21T14:03:12.645Z,46.17
2023-05-21T14:05:41.207Z,46.91
2023-05-21T14:08:09.358Z,46.13
2023-05-21T14:10:38.166Z,43.73
2023-05-21T14:13:18.262Z,45.07
2023-05-21T14:15:48.502Z,44.12
2023-05-21T14:18:16.917Z,44.21
2023-05-21T14:20:45.159Z,45.25
2023-05-21T14:23:13.693Z,46.28
2023-05-21T14:25:42.790Z,45.63
2023-05-21T14:28:10.970Z,44.61
2023-05-21T14:30:39.241Z,45.45
2023-05-21T14:33:07.562Z,43.04
2023-05-21T14:35:35.856Z,46.63
2023-05-21T14:38:04.717Z,44.73
2023-05-21T14:40:32.798Z,44.87
2023-05-21T14:43:01.075Z,44.31
2023-05-21T14:45:29.840Z,47.79
2023-05-21T14:47:58.048Z,44.87
2023-05-21T14:50:26.214Z,43.27
2023-05-21T14:52:54.824Z,44.81
2023-05-21T14:55:23.254Z,45.81
2023-05-21T14:57:51.352Z,46.22
2023-05-21T15:00:20.054Z,44.98
2023-05-21T15:02:48.469Z,47.76
2023-05-21T15:05:17.987Z,44.88
2023-05-21T15:07:47.094Z,42.44
2023-05-21T15:10:17.261Z,44.14
2023-05-21T15:12:47.140Z,45.51
2023-05-21T15:15:17.309Z,45.84
2023-05-21T15:17:45.597Z,47.08
2023-05-21T15:20:14.186Z,45.02
2023-05-21T15:22:42.869Z,47.25
2023-05-21T15:25:11.013Z,45.31
2023-05-21T15:27:39.567Z,45.42
2023-05-21T15:30:08.285Z,45.94
2023-05-21T15:32:36.969Z,44.27
2023-05-21T15:35:05.985Z,45.08
2023-05-21T15:37:34.488Z,45.17
2023-05-21T15:40:02.713Z,45.11
2023-05-21T15:42:31.940Z,46.58
2023-05-21T15:45:00.543Z,45.91
2023-05-21T15:47:28.767Z,46.31
2023-05-21T15:49:58.925Z,45.43
2023-05-21T15:52:27.250Z,46.92
2023-05-21T15:54:55.630Z,45.68
2023-05-21T15:57:24.459Z,46.32
2023-05-21T15:59:53.148Z,45.36
2023-05-21T16:02:21.618Z,46.11
2023-05-21T16:04:52.201Z,46.13
2023-05-21T16:07:21.246Z,44.75
2023-05-21T16:09:49.783Z,45.93
2023-05-21T16:12:18.430Z,46.84
2023-05-21T16:14:50.150Z,46.91
2023-05-21T16:17:21.794Z,46.38
2023-05-21T16:19:49.934Z,47.20
2023-05-21T16:22:20.997Z,47.28
2023-05-21T16:24:49.135Z,47.53
2023-05-21T16:27:17.435Z,45.01
2023-05-21T16:29:45.980Z,45.95
2023-05-21T16:32:14.420Z,47.74
2023-05-21T16:34:42.707Z,46.69
2023-05-21T16:37:11.506Z,46.78
2023-05-21T16:39:39.831Z,47.32
2023-05-21T16:42:08.093Z,46.88
2023-05-21T16:44:38.004Z,48.47
2023-05-21T16:47:06.500Z,48.52
2023-05-21T16:49:34.659Z,47.60
2023-05-21T16:52:03.729Z,47.67
2023-05-21T16:54:32.291Z,48.43
2023-05-21T16:57:00.354Z,51.14
2023-05-21T16:59:29.295Z,50.34
2023-05-21T17:01:57.604Z,51.82
2023-05-21T17:04:25.940Z,51.94
2023-05-21T17:06:54.617Z,51.33
2023-05-21T17:09:22.998Z,50.42
2023-05-21T17:11:51.186Z,51.03
2023-05-21T17:14:32.568Z,51.80
2023-05-21T17:17:02.458Z,53.67
2023-05-21T17:19:31.321Z,54.10
2023-05-21T17:21:59.613Z,54.62
2023-05-21T17:24:27.828Z,52.79
2023-05-21T17:26:56.789Z,53.39
2023-05-21T17:29:25.031Z,52.91
2023-05-21T17:31:53.210Z,53.05
2023-05-21T17:34:25.314Z,54.44
2023-05-21T17:36:54.287Z,53.72
2023-05-21T17:39:23.086Z,55.17
2023-05-21T17:41:51.850Z,54.77
2023-05-21T17:44:20.203Z,55.65
2023-05-21T17:46:52.102Z,58.53
2023-05-21T17:49:20.851Z,58.81
2023-05-21T17:51:49.313Z,59.24
2023-05-21T17:54:17.485Z,58.61
2023-05-21T17:56:46.537Z,58.01
2023-05-21T17:59:16.065Z,59.65
2023-05-21T18:01:44.300Z,63.16
2023-05-21T18:04:13.502Z,60.41
2023-05-21T18:06:43.000Z,61.74
2023-05-21T18:09:14.494Z,63.10
2023-05-21T18:11:44.477Z,63.21
2023-05-21T18:14:12.719Z,64.54
2023-05-21T18:16:41.208Z,64.31
2023-05-21T18:19:09.733Z,66.24
2023-05-21T18:21:38.169Z,67.62
2023-05-21T18:24:06.848Z,67.50
2023-05-21T18:26:35.477Z,65.08
2023-05-21T18:29:03.634Z,64.71
2023-05-21T18:31:32.098Z,65.79
2023-05-21T18:34:00.583Z,66.20
2023-05-21T18:36:28.778Z,66.53
2023-05-21T18:38:58.277Z,66.58
2023-05-21T18:41:27.079Z,67.56
2023-05-21T18:43:55.223Z,69.96
2023-05-21T18:46:24.681Z,68.86
2023-05-21T18:48:53.294Z,68.28
2023-05-21T18:51:21.595Z,69.93
2023-05-21T18:53:49.771Z,70.74
2023-05-21T18:56:18.342Z,71.45
2023-05-21T18:58:47.580Z,70.98
2023-05-21T19:01:16.433Z,72.16
2023-05-21T19:03:44.989Z,70.80
2023-05-21T19:06:13.132Z,71.64
2023-05-21T19:08:42.108Z,71.52
2023-05-21T19:11:12.144Z,71.33
2023-05-21T19:13:40.435Z,72.52
2023-05-21T19:16:11.070Z,73.16
2023-05-21T19:18:43.324Z,73.76
2023-05-21T19:21:12.196Z,74.43
2023-05-21T19:23:52.083Z,75.30
2023-05-21T19:26:22.994Z,77.13
2023-05-21T19:28:53.892Z,76.46
2023-05-21T19:31:23.365Z,76.04
2023-05-21T19:33:52.533Z,76.86
2023-05-21T19:36:21.373Z,76.69
2023-05-21T19:38:50.826Z,77.28
2023-05-21T19:41:20.142Z,77.37
2023-05-21T19:43:48.243Z,77.59
2023-05-21T19:46:19.823Z,76.14
2023-05-21T19:48:49.690Z,77.11
2023-05-21T19:51:17.874Z,76.95
2023-05-21T19:53:46.128Z,76.44
2023-05-21T19:56:15.002Z,76.37
2023-05-21T19:58:47.091Z,76.21
2023-05-21T20:01:16.958Z,77.11
2023-05-21T20:03:46.203Z,77.50
2023-05-21T20:06:16.955Z,76.39
2023-05-21T20:08:46.371Z,76.82
2023-05-21T20:11:14.551Z,77.51
2023-05-21T20:13:42.677Z,76.71
2023-05-21T20:16:12.852Z,77.24
2023-05-21T20:18:41.711Z,77.37
2023-05-21T20:21:10.493Z,77.72
2023-05-21T20:23:39.151Z,77.71
2023-05-21T20:26:07.253Z,77.96
2023-05-21T20:28:35.765Z,78.73
2023-05-21T20:31:04.828Z,79.41
2023-05-21T20:33:34.717Z,79.91
2023-05-21T20:36:03.459Z,80.02
2023-05-21T20:38:37.358Z,80.11
2023-05-21T20:41:05.606Z,79.99
2023-05-21T20:43:37.314Z,80.39
2023-05-21T20:46:05.959Z,80.21
2023-05-21T20:48:35.401Z,80.70
2023-05-21T20:54:27.213Z,80.34
2023-05-21T20:57:09.177Z,79.95
2023-05-21T20:59:37.434Z,79.70
2023-05-21T21:02:11.207Z,79.95
2023-05-21T21:04:40.127Z,80.15
2023-05-21T21:07:10.057Z,80.66
2023-05-21T21:09:38.321Z,81.46
2023-05-21T21:12:24.054Z,81.72
2023-05-21T21:14:53.623Z,82.21
2023-05-21T21:17:22.560Z,81.55
2023-05-21T21:19:50.715Z,82.09
2023-05-21T21:22:19.250Z,84.90
2023-05-21T21:24:48.129Z,85.79
2023-05-21T21:27:16.360Z,86.68
2023-05-21T21:29:45.698Z,87.72
2023-05-21T21:32:14.256Z,87.46
2023-05-21T21:34:42.381Z,88.72
2023-05-21T21:37:11.601Z,88.86
2023-05-21T21:39:40.242Z,88.81
2023-05-21T21:42:08.558Z,87.57
2023-05-21T21:44:36.675Z,88.10
2023-05-21T21:47:05.672Z,87.22
2023-05-21T21:49:34.419Z,85.68
2023-05-21T21:52:02.591Z,83.76
2023-05-21T21:54:31.318Z,85.13
2023-05-21T21:56:59.466Z,83.86
2023-05-21T21:59:27.888Z,83.79
2023-05-21T22:01:56.474Z,83.51
2023-05-21T22:04:24.923Z,83.87
2023-05-21T22:06:53.696Z,84.62
2023-05-21T22:09:24.893Z,86.00
2023-05-21T22:11:53.788Z,85.21
2023-05-21T22:14:21.959Z,86.64
2023-05-21T22:16:53.198Z,86.89
2023-05-21T22:19:22.672Z,88.35
2023-05-21T22:21:50.915Z,90.17
2023-05-21T22:24:31.552Z,89.96
2023-05-21T22:27:01.380Z,89.46
2023-05-21T22:29:29.759Z,89.80
2023-05-21T22:31:57.786Z,89.32
2023-05-21T22:34:26.245Z,87.24
2023-05-21T22:36:54.445Z,83.66
2023-05-21T22:39:22.527Z,81.71
2023-05-21T22:41:51.160Z,82.34
2023-05-21T22:44:19.408Z,82.37
2023-05-21T22:46:49.442Z,82.80
2023-05-21T22:49:18.095Z,81.31
2023-05-21T22:51:46.803Z,82.16
2023-05-21T22:54:14.998Z,80.75
2023-05-21T22:56:44.249Z,79.65
2023-05-21T22:59:14.011Z,80.88
2023-05-21T23:01:42.390Z,79.83
2023-05-21T23:04:10.808Z,80.41
2023-05-21T23:06:39.249Z,80.13
2023-05-21T23:09:07.385Z,80.85
2023-05-21T23:11:35.896Z,78.67
2023-05-21T23:14:04.090Z,77.11
2023-05-21T23:16:35.474Z,76.80
2023-05-21T23:19:03.943Z,78.02
2023-05-21T23:21:32.305Z,77.67
2023-05-21T23:24:00.381Z,80.40
2023-05-21T23:26:28.980Z,80.54
2023-05-21T23:28:57.514Z,79.10
2023-05-21T23:31:26.024Z,77.76
2023-05-21T23:33:54.677Z,78.01
2023-05-21T23:36:23.198Z,79.93
2023-05-21T23:38:51.400Z,80.26
2023-05-21T23:41:19.906Z,80.30
2023-05-21T23:43:47.947Z,81.67
2023-05-21T23:46:16.329Z,78.49
2023-05-21T23:48:44.889Z,76.98
2023-05-21T23:51:13.382Z,77.96
2023-05-21T23:53:41.574Z,78.96
2023-05-21T23:56:09.957Z,80.09
2023-05-21T23:58:38.361Z,81.17
